Time;durP1;ratioP1;P1;durP2;ratioP2;P2;SDS_P1;SDS_P2;PMS_P1;PMS_P2;Temp;Humidity;BMP_temperature;BMP_pressure;BME280_temperature;BME280_humidity;BME280_pressure;Samples;Min_cycle;Max_cycle;Signal;HPM_P1;HPM_P2
2022/11/20 00:01:26;;;;;;;49.45;24.98;;;-3.80;99.90;;;-144.05;73.40;125687.94;5012153;28;20474;-78
2022/11/20 00:03:56;;;;;;;45.97;24.92;;;-3.80;99.90;;;-144.05;73.69;125687.94;5009837;28;20274;-79
2022/11/20 00:06:23;;;;;;;46.83;23.70;;;-3.80;99.90;;;-144.05;73.46;125687.94;5011448;28;20032;-78
2022/11/20 00:08:51;;;;;;;42.33;21.45;;;-3.80;99.90;;;-144.05;73.50;125687.94;5010266;28;20053;-76
2022/11/20 00:11:21;;;;;;;46.60;21.85;;;-3.80;99.90;;;-144.05;73.59;125687.94;5011840;28;20036;-80
2022/11/20 00:13:52;;;;;;;39.92;21.80;;;-3.70;99.90;;;-144.05;73.43;125687.94;5011663;28;20030;-78
2022/11/20 00:16:23;;;;;;;42.50;24.10;;;-3.80;99.90;;;-144.05;73.89;125687.94;5026561;28;20026;-77
2022/11/20 00:18:51;;;;;;;44.28;22.25;;;-3.70;99.90;;;-144.05;73.93;125687.94;5026584;28;20026;-76
2022/11/20 00:21:28;;;;;;;44.38;22.42;;;-3.70;99.90;;;-144.05;73.72;125687.94;5011748;28;20026;-78
2022/11/20 00:23:57;;;;;;;45.47;22.25;;;-3.60;99.90;;;-144.05;73.60;125687.94;5011107;28;20096;-78
2022/11/20 00:26:26;;;;;;;48.58;24.95;;;-3.60;99.90;;;-144.05;73.62;125687.94;5009941;28;20065;-77
2022/11/20 00:29:00;;;;;;;42.42;21.15;;;-3.50;99.90;;;-144.05;73.72;125687.94;5011228;28;20710;-78
2022/11/20 00:31:28;;;;;;;45.10;23.17;;;-3.40;99.90;;;-144.05;73.47;125687.94;5011396;28;20026;-76
2022/11/20 00:33:55;;;;;;;47.08;22.60;;;-3.30;99.90;;;-144.05;73.73;125687.94;5011169;28;20329;-78
2022/11/20 00:36:28;;;;;;;48.85;23.60;;;-3.20;99.90;;;-144.05;73.55;125687.94;5013939;28;20088;-77
2022/11/20 00:38:59;;;;;;;43.67;22.48;;;-3.10;99.90;;;-144.05;73.50;125687.94;5014931;28;20474;-78
2022/11/20 00:41:29;;;;;;;44.20;21.77;;;-3.00;99.90;;;-144.05;73.31;125687.94;5029968;28;20030;-76
2022/11/20 00:43:56;;;;;;;44.08;23.35;;;-3.00;99.90;;;-144.05;73.47;125687.94;5014685;28;20099;-76
2022/11/20 00:46:27;;;;;;;48.97;23.73;;;-2.90;99.90;;;-144.05;73.52;125687.94;5014988;28;20499;-76
2022/11/20 00:48:53;;;;;;;40.58;21.30;;;-2.70;99.90;;;-144.05;73.53;125687.94;5013911;28;20040;-78
2022/11/20 00:51:24;;;;;;;42.72;22.90;;;-2.60;99.90;;;-144.05;73.62;125687.94;5015950;28;20030;-79
2022/11/20 00:53:50;;;;;;;45.42;23.88;;;-2.60;99.90;;;-144.05;73.48;125687.94;5015997;28;20468;-78
2022/11/20 00:56:19;;;;;;;42.85;22.42;;;-2.50;99.90;;;-144.05;73.37;125687.94;5015672;28;20080;-78
2022/11/20 00:58:48;;;;;;;51.13;24.13;;;-2.40;99.90;;;-144.05;73.30;125687.94;5015629;28;20025;-78
2022/11/20 01:01:23;;;;;;;44.67;23.65;;;-2.40;99.90;;;-144.05;73.30;125687.94;5014432;28;20519;-78
2022/11/20 01:03:52;;;;;;;43.50;23.88;;;-2.30;99.90;;;-144.05;73.18;125687.94;5031287;28;20041;-78
2022/11/20 01:06:25;;;;;;;43.85;22.05;;;-2.30;99.90;;;-144.05;73.50;125687.94;5031308;28;20394;-76
2022/11/20 01:08:56;;;;;;;43.72;22.40;;;-2.20;99.90;;;-144.05;73.38;125687.94;5015910;28;20053;-80
2022/11/20 01:11:30;;;;;;;44.25;23.92;;;-2.10;99.90;;;-144.05;73.23;125687.94;5014190;28;20037;-78
2022/11/20 01:13:59;;;;;;;45.22;23.67;;;-2.10;99.90;;;-144.05;73.37;125687.94;5015615;28;20472;-78
2022/11/20 01:16:37;;;;;;;44.45;25.05;;;-2.10;99.90;;;-144.05;73.52;125687.94;5016452;28;20041;-78
2022/11/20 01:19:08;;;;;;;44.20;22.58;;;-2.00;99.90;;;-144.05;73.06;125687.94;5015991;28;20053;-75
2022/11/20 01:21:41;;;;;;;42.58;23.67;;;-2.00;99.90;;;-144.05;73.10;125687.94;5016019;28;20121;-76
2022/11/20 01:24:13;;;;;;;45.78;23.42;;;-1.90;99.90;;;-144.05;72.69;125687.94;5015584;28;20034;-78
2022/11/20 01:26:43;;;;;;;42.75;23.48;;;-1.90;99.90;;;-144.05;72.51;125687.94;5016263;28;20409;-78
2022/11/20 01:29:23;;;;;;;43.05;22.38;;;-1.80;99.90;;;-144.05;72.39;125687.94;5015617;28;20057;-80
2022/11/20 01:31:50;;;;;;;39.25;21.80;;;-1.80;99.90;;;-144.05;72.32;125687.94;5014272;28;20029;-78
2022/11/20 01:34:21;;;;;;;42.28;23.42;;;-1.70;99.90;;;-144.05;72.39;125687.94;5015754;28;20029;-80
2022/11/20 01:36:48;;;;;;;40.80;21.92;;;-1.70;99.90;;;-144.05;72.34;125687.94;5015683;28;20474;-78
2022/11/20 01:39:21;;;;;;;39.78;22.60;;;-1.60;99.90;;;-144.05;72.14;125687.94;5014505;28;20075;-79
2022/11/20 01:44:54;;;;;;;43.58;22.52;;;-1.50;99.90;;;-144.05;72.24;125687.94;5015902;28;20477;-78
2022/11/20 01:47:44;;;;;;;31.10;15.23;;;-1.40;99.90;;;-144.05;72.34;125687.94;5030748;28;20547;-78
2022/11/20 01:50:25;;;;;;;42.55;22.35;;;-1.40;99.90;;;-144.05;72.33;125687.94;5015642;28;20038;-77
2022/11/20 01:52:58;;;;;;;44.00;22.40;;;-1.30;99.90;;;-144.05;72.15;125687.94;5015292;28;20034;-77
2022/11/20 01:55:34;;;;;;;38.40;23.08;;;-1.30;99.90;;;-144.05;72.24;125687.94;5015048;28;20041;-78
2022/11/20 01:58:03;;;;;;;41.28;20.45;;;-1.30;99.90;;;-144.05;72.31;125687.94;5015366;28;20021;-76
2022/11/20 02:00:29;;;;;;;41.05;22.23;;;-1.20;99.90;;;-144.05;72.19;125687.94;5014898;28;20026;-79
2022/11/20 02:03:20;;;;;;;37.78;20.58;;;-1.20;99.90;;;-144.05;72.28;125687.94;5014897;28;20041;-77
2022/11/20 02:06:12;;;;;;;37.08;22.30;;;-1.20;99.90;;;-144.05;72.03;125687.94;5014967;28;20500;-78
2022/11/20 02:08:39;;;;;;;37.17;21.52;;;-1.10;99.90;;;-144.05;72.26;125687.94;5015125;28;20029;-78
2022/11/20 02:11:05;;;;;;;42.03;21.17;;;-1.10;99.90;;;-144.05;72.22;125687.94;5014770;28;20034;-78
2022/11/20 02:13:43;;;;;;;40.65;22.40;;;-1.00;99.90;;;-144.05;72.43;125687.94;5013353;28;20026;-76
2022/11/20 02:16:19;;;;;;;39.15;21.20;;;-1.00;99.90;;;-144.05;72.12;125687.94;5014970;28;20136;-78
2022/11/20 02:18:47;;;;;;;40.08;21.70;;;-0.90;99.90;;;-144.05;71.79;125687.94;5014841;28;20036;-79
2022/11/20 02:21:48;;;;;;;42.03;21.67;;;-0.90;99.90;;;-144.05;72.06;125687.94;5013389;28;20034;-77
2022/11/20 02:24:19;;;;;;;40.35;20.88;;;-0.90;99.90;;;-144.05;72.30;125687.94;4998227;28;20133;-77
2022/11/20 02:26:57;;;;;;;42.25;21.50;;;-0.90;99.90;;;-144.05;72.76;125687.94;5014610;28;20040;-77
2022/11/20 02:29:52;;;;;;;37.88;20.90;;;-0.90;99.90;;;-144.05;72.54;125687.94;5014420;28;20025;-77
2022/11/20 02:32:30;;;;;;;38.83;21.35;;;-0.90;99.90;;;-144.05;72.19;125687.94;5012922;28;20076;-77
2022/11/20 02:34:56;;;;;;;37.38;19.48;;;-0.80;99.90;;;-144.05;72.26;125687.94;5013123;28;20120;-77
2022/11/20 02:37:32;;;;;;;39.75;22.20;;;-0.80;99.90;;;-144.05;72.28;125687.94;5014520;28;20036;-77
2022/11/20 02:39:58;;;;;;;;;;;-0.70;99.90;;;-144.05;72.38;125687.94;5014536;28;20106;-78
2022/11/20 02:42:23;;;;;;;39.03;20.25;;;-0.70;99.90;;;-144.05;71.84;125687.94;5014361;28;19976;-76
2022/11/20 02:44:49;;;;;;;48.00;23.23;;;-0.70;99.90;;;-144.05;72.10;125687.94;5014399;28;20072;-78
2022/11/20 02:47:15;;;;;;;38.83;20.83;;;-0.70;99.90;;;-144.05;72.42;125687.94;5029027;28;20121;-77
2022/11/20 02:49:41;;;;;;;39.25;21.90;;;-0.70;99.90;;;-144.05;72.29;125687.94;5012615;28;20127;-78
2022/11/20 02:52:07;;;;;;;43.42;22.13;;;-0.60;99.90;;;-144.05;72.44;125687.94;5014026;28;20030;-77
2022/11/20 02:54:33;;;;;;;38.42;20.25;;;-0.60;99.90;;;-144.05;72.40;125687.94;5028480;28;20030;-77
2022/11/20 02:56:59;;;;;;;39.92;20.85;;;-0.50;99.90;;;-144.05;72.41;125687.94;5014032;28;20033;-78
2022/11/20 02:59:25;;;;;;;39.42;20.42;;;-0.60;99.90;;;-144.05;72.53;125687.94;5013401;28;20030;-74
2022/11/20 03:01:51;;;;;;;38.80;21.27;;;-0.50;99.90;;;-144.05;72.66;125687.94;5013413;28;20053;-77
2022/11/20 03:04:17;;;;;;;39.78;20.27;;;-0.60;99.90;;;-144.05;72.54;125687.94;5012582;28;20053;-77
2022/11/20 03:06:43;;;;;;;41.05;21.00;;;-0.50;99.90;;;-144.05;72.84;125687.94;5012359;28;20030;-78
2022/11/20 03:09:09;;;;;;;42.53;22.58;;;-0.50;99.90;;;-144.05;72.52;125687.94;5013817;28;20026;-77
2022/11/20 03:11:35;;;;;;;36.35;20.52;;;-0.50;99.90;;;-144.05;72.54;125687.94;5013605;28;20056;-80
2022/11/20 03:14:05;;;;;;;34.35;19.42;;;-0.50;99.90;;;-144.05;72.38;125687.94;5013497;28;20030;-78
2022/11/20 03:16:32;;;;;;;37.53;20.90;;;-0.40;99.90;;;-144.05;72.59;125687.94;5021688;28;20033;-79
2022/11/20 03:18:59;;;;;;;36.97;20.73;;;-0.40;99.90;;;-144.05;72.56;125687.94;5017119;28;20141;-77
2022/11/20 03:21:25;;;;;;;36.13;20.80;;;-0.40;99.90;;;-144.05;72.91;125687.94;5014151;28;20125;-78
2022/11/20 03:23:54;;;;;;;36.47;20.55;;;-0.30;99.90;;;-144.05;72.91;125687.94;5028251;28;20033;-76
2022/11/20 03:26:25;;;;;;;43.70;22.17;;;-0.30;99.90;;;-144.05;73.03;125687.94;5013623;28;20040;-78
2022/11/20 03:29:01;;;;;;;37.88;21.98;;;-0.30;99.90;;;-144.05;72.49;125687.94;5013848;28;20029;-79
2022/11/20 03:31:36;;;;;;;40.95;20.80;;;-0.30;99.90;;;-144.05;72.04;125687.94;5013012;28;20042;-78
2022/11/20 03:34:03;;;;;;;35.75;18.85;;;-0.30;99.90;;;-144.05;72.25;125687.94;5028638;28;20045;-76
2022/11/20 03:36:30;;;;;;;39.30;21.60;;;-0.30;99.90;;;-144.05;72.26;125687.94;5013692;28;20034;-79
2022/11/20 03:38:57;;;;;;;39.00;20.60;;;-0.20;99.90;;;-144.05;72.51;125687.94;5017667;28;20080;-78
2022/11/20 03:41:31;;;;;;;37.50;19.95;;;-0.20;99.90;;;-144.05;72.77;125687.94;5023674;28;20049;-78
2022/11/20 03:44:02;;;;;;;36.45;21.20;;;-0.20;99.90;;;-144.05;72.74;125687.94;5023781;28;20038;-77
2022/11/20 03:46:29;;;;;;;41.53;23.00;;;-0.10;99.90;;;-144.05;72.84;125687.94;5023626;28;20550;-79
2022/11/20 03:48:56;;;;;;;40.42;20.80;;;-0.20;99.90;;;-144.05;73.01;125687.94;5023418;28;20401;-77
2022/11/20 03:51:30;;;;;;;35.28;20.48;;;-0.20;99.90;;;-144.05;72.74;125687.94;5022515;28;20026;-78
2022/11/20 03:54:05;;;;;;;35.60;20.17;;;-0.10;99.90;;;-144.05;72.85;125687.94;5037609;28;20069;-79
2022/11/20 03:56:37;;;;;;;39.92;20.90;;;-0.10;99.90;;;-144.05;72.71;125687.94;5022531;28;20026;-79
2022/11/20 03:59:04;;;;;;;36.47;20.33;;;-0.10;99.90;;;-144.05;72.94;125687.94;5022070;28;20045;-79
2022/11/20 04:01:37;;;;;;;38.10;20.50;;;-0.10;99.90;;;-144.05;72.84;125687.94;5021635;28;20030;-77
2022/11/20 04:04:03;;;;;;;37.50;19.80;;;-0.10;99.90;;;-144.05;72.97;125687.94;5013771;28;20041;-78
2022/11/20 04:06:37;;;;;;;37.58;20.80;;;0.00;99.90;;;-144.05;72.83;125687.94;5013631;28;20038;-77
2022/11/20 04:09:05;;;;;;;37.28;20.38;;;0.00;99.90;;;-144.05;72.80;125687.94;5013529;28;20108;-78
2022/11/20 04:11:36;;;;;;;37.80;21.35;;;0.00;99.90;;;-144.05;72.84;125687.94;5017046;28;20065;-78
2022/11/20 04:14:11;;;;;;;38.35;20.48;;;0.00;99.90;;;-144.05;72.86;125687.94;5016989;28;20549;-76
2022/11/20 04:16:37;;;;;;;41.47;21.20;;;0.00;99.90;;;-144.05;73.01;125687.94;5017120;28;20034;-75
2022/11/20 04:19:10;;;;;;;35.25;19.90;;;0.10;99.90;;;-144.05;72.99;125687.94;5017000;28;20032;-76
2022/11/20 04:21:36;;;;;;;36.05;19.77;;;0.10;99.90;;;-144.05;72.91;125687.94;5032684;28;20184;-78
2022/11/20 04:24:02;;;;;;;39.90;20.58;;;0.10;99.90;;;-144.05;73.01;125687.94;5032602;28;20038;-76
2022/11/20 04:26:30;;;;;;;35.90;21.75;;;0.10;99.90;;;-144.05;73.01;125687.94;5017982;28;20125;-77
2022/11/20 04:28:58;;;;;;;38.50;20.30;;;0.10;99.90;;;-144.05;72.95;125687.94;5018051;28;20041;-78
2022/11/20 04:31:29;;;;;;;37.10;22.17;;;0.10;99.90;;;-144.05;72.35;125687.94;5017645;28;20049;-78
2022/11/20 04:33:59;;;;;;;38.03;21.10;;;0.10;99.90;;;-144.05;72.49;125687.94;5032500;28;20301;-77
2022/11/20 04:36:29;;;;;;;35.75;20.80;;;0.20;99.90;;;-144.05;72.35;125687.94;5016154;28;20030;-76
2022/11/20 04:39:05;;;;;;;37.33;21.85;;;0.20;99.90;;;-144.05;72.20;125687.94;5014856;28;20093;-77
2022/11/20 04:41:36;;;;;;;;;;;0.20;99.90;;;-144.05;72.25;125687.94;5015209;28;20478;-77
2022/11/20 04:44:05;;;;;;;34.65;19.98;;;0.20;99.90;;;-144.05;72.47;125687.94;5015608;28;19995;-76
2022/11/20 04:46:40;;;;;;;39.42;21.92;;;0.30;99.90;;;-144.05;72.09;125687.94;5014342;28;20033;-78
2022/11/20 04:49:07;;;;;;;32.80;19.05;;;0.20;99.90;;;-144.05;72.41;125687.94;5015817;28;20025;-78
2022/11/20 04:51:34;;;;;;;39.92;21.65;;;0.20;99.90;;;-144.05;72.04;125687.94;5015097;28;20113;-78
2022/11/20 04:54:00;;;;;;;33.58;19.73;;;0.20;99.90;;;-144.05;72.27;125687.94;5013722;28;20049;-77
2022/11/20 04:56:26;;;;;;;36.63;19.52;;;0.20;99.90;;;-144.05;72.16;125687.94;5030494;28;20026;-77
2022/11/20 04:58:53;;;;;;;32.67;18.48;;;0.20;99.90;;;-144.05;72.74;125687.94;5030436;28;20047;-77
2022/11/20 05:01:23;;;;;;;33.08;17.98;;;0.30;99.90;;;-144.05;72.59;125687.94;5015345;28;20044;-77
2022/11/20 05:03:50;;;;;;;37.85;20.52;;;0.30;99.90;;;-144.05;72.30;125687.94;5014911;28;20029;-77
2022/11/20 05:06:20;;;;;;;31.20;18.60;;;0.40;99.90;;;-144.05;72.49;125687.94;5015076;28;20634;-77
2022/11/20 05:08:47;;;;;;;37.28;21.88;;;0.40;99.90;;;-144.05;72.26;125687.94;5015154;28;20034;-76
2022/11/20 05:11:19;;;;;;;35.08;19.50;;;0.40;99.90;;;-144.05;72.20;125687.94;5014812;28;20050;-76
2022/11/20 05:13:47;;;;;;;38.05;20.85;;;0.40;99.90;;;-144.05;72.24;125687.94;5015047;28;20030;-77
2022/11/20 05:16:24;;;;;;;33.92;19.92;;;0.40;99.90;;;-144.05;72.11;125687.94;5015158;28;20096;-75
2022/11/20 05:18:54;;;;;;;37.00;20.83;;;0.40;99.90;;;-144.05;72.24;125687.94;5014699;28;20460;-77
2022/11/20 05:21:21;;;;;;;36.88;21.33;;;0.40;99.90;;;-144.05;72.02;125687.94;5014008;28;20034;-77
2022/11/20 05:23:47;;;;;;;33.97;19.38;;;0.40;99.90;;;-144.05;72.34;125687.94;5014765;28;20061;-76
2022/11/20 05:26:21;;;;;;;31.85;19.23;;;0.40;99.90;;;-144.05;72.44;125687.94;5014800;28;20601;-77
2022/11/20 05:28:49;;;;;;;35.03;19.85;;;0.40;99.90;;;-144.05;72.20;125687.94;5015223;28;20058;-76
2022/11/20 05:31:23;;;;;;;41.75;20.55;;;0.40;99.90;;;-144.05;72.26;125687.94;5014568;28;20026;-76
2022/11/20 05:33:49;;;;;;;36.20;20.25;;;0.40;99.90;;;-144.05;72.28;125687.94;5013285;28;20072;-77
2022/11/20 05:36:17;;;;;;;32.85;19.15;;;0.40;99.90;;;-144.05;72.51;125687.94;5014817;28;20069;-76
2022/11/20 05:38:44;;;;;;;32.35;18.58;;;0.40;99.90;;;-144.05;72.31;125687.94;5014520;28;20029;-75
2022/11/20 05:41:17;;;;;;;34.70;19.55;;;0.40;99.90;;;-144.05;72.36;125687.94;5014431;28;20105;-77
2022/11/20 05:43:46;;;;;;;34.08;18.63;;;0.30;99.90;;;-144.05;72.49;125687.94;5014586;28;20037;-77
2022/11/20 05:46:20;;;;;;;33.42;19.08;;;0.30;99.90;;;-144.05;72.49;125687.94;5014744;28;20041;-75
2022/11/20 05:48:47;;;;;;;35.15;19.88;;;0.30;99.90;;;-144.05;72.59;125687.94;5014012;28;20079;-76
2022/11/20 05:51:18;;;;;;;33.65;19.30;;;0.20;99.90;;;-144.05;72.51;125687.94;5014125;28;20521;-78
2022/11/20 05:53:44;;;;;;;34.92;18.52;;;0.20;99.90;;;-144.05;72.59;125687.94;5014331;28;20038;-74
2022/11/20 05:56:18;;;;;;;33.50;17.83;;;0.20;99.90;;;-144.05;72.73;125687.94;5014392;28;20033;-77
2022/11/20 05:58:46;;;;;;;31.88;19.15;;;0.10;99.90;;;-144.05;72.95;125687.94;5014727;28;20030;-76
2022/11/20 06:01:25;;;;;;;32.75;18.48;;;0.10;99.90;;;-144.05;72.69;125687.94;5014723;28;20038;-76
2022/11/20 06:03:54;;;;;;;30.25;18.02;;;0.10;99.90;;;-144.05;72.76;125687.94;5014916;28;20042;-77
2022/11/20 06:06:21;;;;;;;28.30;17.52;;;0.00;99.90;;;-144.05;72.95;125687.94;5013880;28;20033;-79
2022/11/20 06:08:48;;;;;;;34.28;17.55;;;0.00;99.90;;;-144.05;73.40;125687.94;5016430;28;20060;-77
2022/11/20 06:11:16;;;;;;;27.38;16.92;;;-0.10;99.90;;;-144.05;73.32;125687.94;5013744;28;20034;-78
2022/11/20 06:13:43;;;;;;;31.38;17.70;;;-0.10;99.90;;;-144.05;73.12;125687.94;5013884;28;20397;-76
2022/11/20 06:16:13;;;;;;;27.98;16.15;;;-0.20;99.90;;;-144.05;73.19;125687.94;5014192;28;20025;-76
2022/11/20 06:18:39;;;;;;;32.00;18.10;;;-0.30;99.90;;;-144.05;73.62;125687.94;5029864;28;20026;-76
2022/11/20 06:21:12;;;;;;;34.72;17.63;;;-0.30;99.90;;;-144.05;73.59;125687.94;5014793;28;20049;-76
2022/11/20 06:23:39;;;;;;;28.63;17.50;;;-0.40;99.90;;;-144.05;73.65;125687.94;5014763;28;20509;-77
2022/11/20 06:26:13;;;;;;;30.63;17.50;;;-0.40;99.90;;;-144.05;73.74;125687.94;5014646;28;20137;-78
2022/11/20 06:28:39;;;;;;;32.58;18.15;;;-0.60;99.90;;;-144.05;73.81;125687.94;5014267;28;20037;-77
2022/11/20 06:31:06;;;;;;;37.22;19.40;;;-0.60;99.90;;;-144.05;74.35;125687.94;5014094;28;20116;-78
2022/11/20 06:33:32;;;;;;;30.30;17.95;;;-0.60;99.90;;;-144.05;74.40;125687.94;5013167;28;20491;-77
2022/11/20 06:36:01;;;;;;;31.38;17.55;;;-0.70;99.90;;;-144.05;74.31;125687.94;5012824;28;20026;-77
2022/11/20 06:38:28;;;;;;;36.72;18.20;;;-0.70;99.90;;;-144.05;74.26;125687.94;5014138;28;20030;-75
2022/11/20 06:40:55;;;;;;;33.97;18.63;;;-0.80;99.90;;;-144.05;74.27;125687.94;5014794;28;20053;-77
2022/11/20 06:43:22;;;;;;;31.35;17.92;;;-0.90;99.90;;;-144.05;74.47;125687.94;5014963;28;20312;-77
2022/11/20 06:45:56;;;;;;;32.53;18.38;;;-0.90;99.90;;;-144.05;74.44;125687.94;5015057;28;20038;-77
2022/11/20 06:48:25;;;;;;;32.47;17.67;;;-1.00;99.90;;;-144.05;74.55;125687.94;5015162;28;20045;-77
2022/11/20 06:50:51;;;;;;;34.45;18.40;;;-1.00;99.90;;;-144.05;74.76;125687.94;5020359;28;20068;-78
2022/11/20 06:53:17;;;;;;;31.58;17.88;;;-1.10;99.90;;;-144.05;74.88;125687.94;5018969;28;20030;-80
2022/11/20 06:55:46;;;;;;;33.00;18.05;;;-1.10;99.90;;;-144.05;75.00;125687.94;5015042;28;20033;-77
2022/11/20 06:58:15;;;;;;;32.75;17.83;;;-1.10;99.90;;;-144.05;74.96;125687.94;5014478;28;20084;-78
2022/11/20 07:00:42;;;;;;;32.42;16.92;;;-1.20;99.90;;;-144.05;75.04;125687.94;5016451;28;20049;-77
2022/11/20 07:03:11;;;;;;;34.35;19.95;;;-1.20;99.90;;;-144.05;75.09;125687.94;5015299;28;20060;-78
2022/11/20 07:05:38;;;;;;;32.58;18.42;;;-1.30;99.90;;;-144.05;75.16;125687.94;5015290;28;20453;-78
2022/11/20 07:08:05;;;;;;;35.72;19.75;;;-1.30;99.90;;;-144.05;75.27;125687.94;5014620;28;20592;-78
2022/11/20 07:10:31;;;;;;;32.17;17.60;;;-1.30;99.90;;;-144.05;75.15;125687.94;5012955;28;20415;-78
2022/11/20 07:12:57;;;;;;;32.00;18.05;;;-1.40;99.90;;;-144.05;75.31;125687.94;5028987;28;20188;-78
2022/11/20 07:15:25;;;;;;;34.58;17.75;;;-1.40;99.90;;;-144.05;75.42;125687.94;5014145;28;20496;-79
2022/11/20 07:17:51;;;;;;;35.17;18.02;;;-1.50;99.90;;;-144.05;75.52;125687.94;5014377;28;20116;-78
2022/11/20 07:20:17;;;;;;;33.70;18.40;;;-1.50;99.90;;;-144.05;75.68;125687.94;5014008;28;20045;-78
2022/11/20 07:22:43;;;;;;;37.03;18.63;;;-1.40;99.90;;;-144.05;75.61;125687.94;5014434;28;20038;-79
2022/11/20 07:25:10;;;;;;;31.30;17.65;;;-1.40;99.90;;;-144.05;75.51;125687.94;5014386;28;20030;-77
2022/11/20 07:27:36;;;;;;;34.95;19.20;;;-1.40;99.90;;;-144.05;75.39;125687.94;5013063;28;20257;-76
2022/11/20 07:30:04;;;;;;;34.65;18.38;;;-1.40;99.90;;;-144.05;75.70;125687.94;5014415;28;20030;-76
2022/11/20 07:32:30;;;;;;;38.25;19.58;;;-1.40;99.90;;;-144.05;75.63;125687.94;5015509;28;20040;-78
2022/11/20 07:34:56;;;;;;;32.58;18.05;;;-1.40;99.90;;;-144.05;75.50;125687.94;5029839;28;20042;-76
2022/11/20 07:37:21;;;;;;;33.65;18.75;;;-1.50;99.90;;;-144.05;75.78;125687.94;5030009;28;20145;-76
2022/11/20 07:39:47;;;;;;;30.50;17.90;;;-1.40;99.90;;;-144.05;75.87;125687.94;5014672;28;20036;-77
2022/11/20 07:42:13;;;;;;;32.38;17.83;;;-1.40;99.90;;;-144.05;75.82;125687.94;5015097;28;20080;-77
2022/11/20 07:44:39;;;;;;;41.15;20.38;;;-1.40;99.90;;;-144.05;75.70;125687.94;5029883;28;20034;-78
2022/11/20 07:47:05;;;;;;;35.38;19.23;;;-1.30;99.90;;;-144.05;75.52;125687.94;5015070;28;20054;-76
2022/11/20 07:49:31;;;;;;;36.05;19.75;;;-1.30;99.90;;;-144.05;75.76;125687.94;5014628;28;20034;-75
2022/11/20 07:51:57;;;;;;;33.78;19.50;;;-1.30;99.90;;;-144.05;75.85;125687.94;5014948;28;20045;-76
2022/11/20 07:54:23;;;;;;;37.03;19.50;;;-1.20;99.90;;;-144.05;75.94;125687.94;5014656;28;20201;-78
2022/11/20 07:56:49;;;;;;;36.20;19.23;;;-1.10;99.90;;;-144.05;75.74;125687.94;5015146;28;20030;-78
2022/11/20 07:59:15;;;;;;;34.92;18.38;;;-1.00;99.90;;;-144.05;75.69;125687.94;5014170;28;20186;-77
2022/11/20 08:01:42;;;;;;;37.22;21.25;;;-0.90;99.90;;;-144.05;75.72;125687.94;5013397;28;20462;-78
2022/11/20 08:04:09;;;;;;;41.35;21.73;;;-0.80;99.90;;;-144.05;75.40;125687.94;5029662;28;20061;-74
2022/11/20 08:06:36;;;;;;;38.75;21.10;;;-0.70;99.90;;;-144.05;75.21;125687.94;5013659;28;20041;-75
2022/11/20 08:09:03;;;;;;;39.28;19.90;;;-0.50;99.90;;;-144.05;75.32;125687.94;5013447;28;20030;-76
2022/11/20 08:14:13;;;;;;;37.45;20.85;;;0.20;99.90;;;-144.05;74.85;125687.94;5013932;28;20068;-76
2022/11/20 08:16:49;;;;;;;35.75;19.58;;;0.70;99.90;;;-144.05;74.39;125687.94;5013922;28;20034;-76
2022/11/20 08:19:18;;;;;;;38.25;19.25;;;1.10;99.90;;;-144.05;73.92;125687.94;5013701;28;20113;-79
2022/11/20 08:21:45;;;;;;;30.73;18.35;;;1.30;99.90;;;-144.05;73.15;125687.94;5012009;28;20044;-75
2022/11/20 08:24:12;;;;;;;34.65;20.00;;;1.50;99.90;;;-144.05;72.26;125687.94;5013299;28;20030;-77
2022/11/20 08:26:40;;;;;;;34.25;19.25;;;1.60;99.90;;;-144.05;71.94;125687.94;5013435;28;20034;-77
2022/11/20 08:29:07;;;;;;;31.85;18.90;;;1.70;99.90;;;-144.05;71.69;125687.94;5012530;28;20080;-76
2022/11/20 08:31:33;;;;;;;27.65;17.92;;;1.90;99.90;;;-144.05;70.12;125687.94;5013178;28;20528;-75
2022/11/20 08:33:59;;;;;;;31.05;16.98;;;1.80;99.90;;;-144.05;69.51;125687.94;5028453;28;20107;-74
2022/11/20 08:36:25;;;;;;;30.02;17.60;;;1.90;99.90;;;-144.05;68.95;125687.94;5013825;28;20489;-77
2022/11/20 08:38:55;;;;;;;28.02;16.25;;;2.00;99.90;;;-144.05;68.94;125687.94;5011900;28;20096;-76
2022/11/20 08:41:28;;;;;;;31.02;17.20;;;2.20;99.90;;;-144.05;68.32;125687.94;5013916;28;20034;-77
2022/11/20 08:44:01;;;;;;;29.50;17.70;;;2.40;99.90;;;-144.05;67.55;125687.94;5013405;28;20037;-77
2022/11/20 08:46:37;;;;;;;28.67;16.80;;;2.60;99.90;;;-144.05;67.17;125687.94;5012452;28;20173;-77
2022/11/20 08:49:09;;;;;;;;;;;2.80;99.90;;;-144.05;65.95;125687.94;5014003;28;20033;-75
2022/11/20 08:51:38;;;;;;;23.63;15.27;;;3.00;99.90;;;-144.05;65.67;125687.94;5012241;28;19921;-77
2022/11/20 08:54:05;;;;;;;27.42;15.52;;;3.30;99.90;;;-144.05;64.63;125687.94;5013473;28;20041;-75
2022/11/20 08:56:32;;;;;;;27.15;16.73;;;3.50;99.90;;;-144.05;64.39;125687.94;5029653;28;20470;-75
2022/11/20 08:59:00;;;;;;;27.80;15.45;;;3.80;99.90;;;-144.05;63.04;125687.94;5017157;28;20104;-78
2022/11/20 09:01:29;;;;;;;23.67;15.43;;;4.00;99.90;;;-144.05;62.18;125687.94;5016697;28;20485;-76
2022/11/20 09:03:59;;;;;;;23.85;14.90;;;4.30;99.90;;;-144.05;61.30;125687.94;5016339;28;20506;-76
2022/11/20 09:06:25;;;;;;;25.77;15.50;;;4.50;99.90;;;-144.05;60.13;125687.94;5015253;28;20497;-76
2022/11/20 09:08:55;;;;;;;24.30;14.13;;;4.50;99.90;;;-144.05;59.94;125687.94;5015264;28;20108;-73
2022/11/20 09:11:21;;;;;;;25.17;14.27;;;4.50;99.90;;;-144.05;59.19;125687.94;5016779;28;20036;-75
2022/11/20 09:13:47;;;;;;;23.30;14.73;;;4.60;99.90;;;-144.05;58.41;125687.94;5032513;28;20030;-74
2022/11/20 09:16:13;;;;;;;22.35;13.45;;;4.70;99.90;;;-144.05;57.82;125687.94;5016049;28;20034;-76
2022/11/20 09:18:39;;;;;;;21.35;13.05;;;4.80;99.90;;;-144.05;57.51;125687.94;5017041;28;20500;-75
2022/11/20 09:21:10;;;;;;;18.98;13.02;;;4.90;99.90;;;-144.05;57.59;125687.94;5032132;28;20022;-76
2022/11/20 09:23:39;;;;;;;20.35;12.75;;;5.00;99.90;;;-144.05;56.79;125687.94;5016900;28;20038;-76
2022/11/20 09:26:11;;;;;;;19.55;13.48;;;5.10;99.90;;;-144.05;56.98;125687.94;5015619;28;20058;-76
2022/11/20 09:28:38;;;;;;;19.48;12.98;;;5.20;99.90;;;-144.05;56.70;125687.94;5017224;28;20026;-76
2022/11/20 09:31:25;;;;;;;19.73;12.50;;;5.40;99.90;;;-144.05;55.96;125687.94;5016420;28;20034;-77
2022/11/20 09:33:51;;;;;;;21.35;11.63;;;5.50;99.90;;;-144.05;55.04;125687.94;5017858;28;20172;-75
2022/11/20 09:36:18;;;;;;;20.65;12.52;;;5.70;99.90;;;-144.05;54.16;125687.94;5014931;28;20093;-77
2022/11/20 09:38:46;;;;;;;22.70;12.80;;;5.70;99.90;;;-144.05;54.14;125687.94;5015141;28;20026;-77
2022/11/20 09:41:59;;;;;;;23.42;13.25;;;5.80;99.90;;;-144.05;53.68;125687.94;5016506;28;20057;-76
2022/11/20 09:44:55;;;;;;;20.70;11.90;;;6.00;99.90;;;-144.05;52.44;125687.94;5016187;28;20350;-77
2022/11/20 09:47:59;;;;;;;21.23;12.68;;;6.00;99.90;;;-144.05;51.42;125687.94;5016360;28;20045;-77
2022/11/20 09:50:38;;;;;;;20.50;12.30;;;6.10;99.90;;;-144.05;51.20;125687.94;5033122;28;20568;-78
2022/11/20 09:53:21;;;;;;;22.10;13.05;;;6.10;99.90;;;-144.05;50.85;125687.94;5018049;28;20125;-76
2022/11/20 09:55:48;;;;;;;21.63;12.82;;;6.30;99.90;;;-144.05;49.84;125687.94;5015401;28;20037;-76
2022/11/20 09:59:04;;;;;;;20.83;12.25;;;6.30;99.90;;;-144.05;50.10;125687.94;5015696;28;20114;-75
2022/11/20 10:01:38;;;;;;;20.42;12.70;;;6.30;99.90;;;-144.05;50.66;125687.94;5000676;28;20038;-78
2022/11/20 10:04:17;;;;;;;21.30;12.57;;;6.20;99.90;;;-144.05;51.11;125687.94;5014071;28;20100;-76
2022/11/20 10:07:08;;;;;;;21.95;12.32;;;6.20;99.90;;;-144.05;50.88;125687.94;5015095;28;20458;-76
2022/11/20 10:09:55;;;;;;;21.83;12.32;;;6.30;99.90;;;-144.05;49.28;125687.94;5015064;28;20030;-75